KRVS

Richard Lloyd Jones Jr Airport

Tulsa, Oklahoma, USA
KRVS 151135Z 1512/1612 13005KT P6SM VCSH FEW003 BKN035 OVC060 FM151500 24009KT P6SM BKN025 FM152000 27009KT P6SM BKN050 FM160000 VRB02KT P6SM BKN250
Issued Valid From Valid To
Aug-15 @ 11:35 UTC
(an hour ago)
Aug-15 @ 12:00 UTC
(38 minutes ago)
Aug-16 @ 12:00 UTC
(in 23 hours)
Aug-15 @ 12:00 to Aug-15 @ 15:00
KRVS 151135Z 1512/1612 13005KT P6SM VCSH FEW003 BKN035 OVC060
Wind Visibility Clouds
130° at 5 knots Greater than 6 miles
  • Few at 300' AGL
  • Broken at 3,500' AGL
  • Overcast at 6,000' AGL
From Aug-15 @ 15:00 to Aug-15 @ 20:00
FM151500 24009KT P6SM BKN025
Wind Visibility Clouds
240° at 9 knots Greater than 6 miles
  • Broken at 2,500' AGL
From Aug-15 @ 20:00 to Aug-16 @ 00:00
FM152000 27009KT P6SM BKN050
Wind Visibility Clouds
270° at 9 knots Greater than 6 miles
  • Broken at 5,000' AGL
From Aug-16 @ 00:00 to Aug-16 @ 12:00
FM160000 VRB02KT P6SM BKN250
Wind Visibility Clouds
Variable at 2 knots Greater than 6 miles
  • Broken at 25,000' AGL
KRVS 151135Z 1512/1612 13005KT P6SM VCSH FEW003 BKN035 OVC060 FM151500 24009KT P6SM BKN025 FM152000 27009KT P6SM BKN050 FM160000 VRB02KT P6SM BKN250
Issued Aug-15 @ 11:35 UTC
(an hour ago)
Valid From Aug-15 @ 12:00 UTC
(38 minutes ago)
Valid To Aug-16 @ 12:00 UTC
(in 23 hours)
Aug-15 @ 12:00 - Aug-15 @ 15:00
Wind Visibility
130° at 5 knots Greater than 6 miles
Clouds
  • Few at 300' AGL
  • Broken at 3,500' AGL
  • Overcast at 6,000' AGL
From Aug-15 @ 15:00 - Aug-15 @ 20:00
Wind Visibility
240° at 9 knots Greater than 6 miles
Clouds
  • Broken at 2,500' AGL
From Aug-15 @ 20:00 - Aug-16 @ 00:00
Wind Visibility
270° at 9 knots Greater than 6 miles
Clouds
  • Broken at 5,000' AGL
From Aug-16 @ 00:00 - Aug-16 @ 12:00
Wind Visibility
Variable at 2 knots Greater than 6 miles
Clouds
  • Broken at 25,000' AGL